Terminal Aerodrome Forecast
Issued by NWS Sioux Falls, SD

Home | Current Version | Previous Version | Graphics & Text | Print | Product List | Glossary On
Versions: 1 2 3 4 5 6 7 8 9 10 11 12
000
FTUS43 KFSD 172300
TAFSUX
TAF
KSUX 172331Z 1800/1824 10006KT P6SM BKN110
     FM180900 13010KT P6SM BKN120
     FM181500 16013G19KT P6SM BKN100
     FM181800 16022G29KT P6SM SCT250=

USA.gov is the U.S. government's official web portal to all federal, state and local government web resources and services.